Flugplatz Tannheim

Für EDMT sind keine METAR/TAF Berichte vorhanden.
Es werden die Flugwettermeldungen vom Flugplatz Memmingen Allgau in 10 km Entfernung angezeigt.

Bericht für EDJA

vom 29.09. um 14:20 UTC

variable Windrichtung mit 2 kt

Sichtweite 10 km oder mehr

gering bewölkt in 1100 ft

Temperatur 9.0°C

Taupunkt 7.0°C

Luftfeuchtigkeit 87%

Luftdruck 1003 hPa

EDJA 291420Z VRB02KT 9999 FEW011 09/07 Q1003

Prognose für EDJA

vom 29.09. um 14:00 UTC

Zwischen 15:00 UTC und 00:00 UTC

Wind 4 kt aus 80°

Sichtweite 10 km oder mehr

gering bewölkt in 2500 ft


Zwischen 15:00 UTC und 00:00 UTC zeitweise

aufgebrochene Bewölkung in 1200 ft


Zwischen 17:00 UTC und 00:00 UTC zeitweise mit einer Wahrscheinlichkeit von 30%

aufgebrochene Bewölkung in 600 ft

TAF EDJA 291400Z 2915/2924 08004KT 9999 FEW025 TEMPO 2915/2924 BKN012 PROB30 TEMPO 2917/2924 BKN006
Impressum